KLBL

Liberal Mid-America Regional Airport

Liberal, Kansas, USA
METAR KLBL 170156Z AUTO 17009KT 10SM CLR 10/M04 A2977 RMK AO2 SLP088 T01001044
Observed Flight Rules
Dec-17 @ 01:56 UTC (23 minutes ago) Visual Flight Rules
Wind Visibility Clouds
170° at 9 knots 10 miles
  • Clear skies
Temperatures Readings
Current 10°C / 50°F
Dewpoint -4°C / 25°F
Humidity 37%
Altimeter 29.77" Hg
Pressure 1008.8 hPa
Elevation 879
METAR KLBL 170156Z AUTO 17009KT 10SM CLR 10/M04 A2977 RMK AO2 SLP088 T01001044
Observed Flight Rules
Dec-17 @ 01:56 UTC
(23 minutes ago)
VFR
Wind Visibility
170° at 9 knots 10 miles
Clouds
  • Clear skies
Temperature Dewpoint
10°C / 50°F -4°C / 25°F
Humidity Altimeter Pressure
37% 29.77" Hg 1008.8 hPa